Time;durP1;ratioP1;P1;durP2;ratioP2;P2;SDS_P1;SDS_P2;PMS_P1;PMS_P2;Temp;Humidity;BMP_temperature;BMP_pressure;BME280_temperature;BME280_humidity;BME280_pressure;Samples;Min_cycle;Max_cycle;Signal;HPM_P1;HPM_P2
2021/10/30 00:02:25;;;;;;;17.98;13.40;;;9.00;99.90;;;;;;5033624;28;20213;-77
2021/10/30 00:04:51;;;;;;;20.02;12.80;;;9.10;99.90;;;;;;5033524;28;20208;-77
2021/10/30 00:07:19;;;;;;;20.45;13.30;;;9.00;99.90;;;;;;5033125;28;20216;-77
2021/10/30 00:09:47;;;;;;;20.30;13.50;;;9.10;99.90;;;;;;5033427;28;20674;-78
2021/10/30 00:12:14;;;;;;;20.77;14.87;;;9.00;99.90;;;;;;5033382;28;20210;-77
2021/10/30 00:14:43;;;;;;;16.90;12.23;;;9.10;99.90;;;;;;5033396;28;20469;-78
2021/10/30 00:17:10;;;;;;;18.30;13.98;;;9.10;99.90;;;;;;5033408;28;20215;-78
2021/10/30 00:19:37;;;;;;;19.10;12.75;;;9.20;99.90;;;;;;5035046;28;20231;-78
2021/10/30 00:22:04;;;;;;;19.80;13.97;;;9.10;99.90;;;;;;5034637;28;20772;-78
2021/10/30 00:24:32;;;;;;;19.30;13.00;;;9.10;99.90;;;;;;5034458;28;20458;-78
2021/10/30 00:27:01;;;;;;;17.02;12.80;;;8.90;99.90;;;;;;5034283;28;20457;-78
2021/10/30 00:29:28;;;;;;;21.92;13.40;;;8.90;99.90;;;;;;5035308;28;20232;-77
2021/10/30 00:31:55;;;;;;;16.80;12.38;;;8.90;99.90;;;;;;5035352;28;20216;-77
2021/10/30 00:34:23;;;;;;;16.65;12.98;;;9.00;99.90;;;;;;5038329;28;20247;-79
2021/10/30 00:36:50;;;;;;;18.20;13.53;;;9.00;99.90;;;;;;5038278;28;20213;-78
2021/10/30 00:39:17;;;;;;;18.15;11.85;;;8.90;99.90;;;;;;5036439;28;20491;-77
2021/10/30 00:41:46;;;;;;;15.75;12.38;;;9.10;99.90;;;;;;5039444;28;20304;-78
2021/10/30 00:44:15;;;;;;;20.67;13.45;;;9.10;99.90;;;;;;5035272;28;20289;-78
2021/10/30 00:46:42;;;;;;;17.42;12.73;;;9.00;99.90;;;;;;5034682;28;20231;-77
2021/10/30 00:49:10;;;;;;;17.67;13.23;;;8.90;99.90;;;;;;5034578;28;20234;-77
2021/10/30 00:51:38;;;;;;;18.67;13.67;;;8.90;99.90;;;;;;5036277;28;20578;-78
2021/10/30 00:54:06;;;;;;;14.77;11.77;;;9.00;99.90;;;;;;5038215;28;20455;-78
2021/10/30 00:56:34;;;;;;;19.90;13.27;;;8.90;99.90;;;;;;5038083;28;20212;-77
2021/10/30 00:59:05;;;;;;;17.38;12.77;;;8.80;99.90;;;;;;5039117;28;20225;-78
2021/10/30 01:01:33;;;;;;;15.57;12.50;;;8.80;99.90;;;;;;5036924;28;20212;-77
2021/10/30 01:03:59;;;;;;;20.27;13.15;;;8.80;99.90;;;;;;5037868;28;20223;-78
2021/10/30 01:06:26;;;;;;;18.60;11.48;;;8.80;99.90;;;;;;5043540;28;20228;-77
2021/10/30 01:08:54;;;;;;;22.92;13.50;;;8.80;99.90;;;;;;5036560;28;20320;-79
2021/10/30 01:11:21;;;;;;;18.13;13.15;;;8.80;99.90;;;;;;5038147;28;20562;-77
2021/10/30 01:13:49;;;;;;;22.55;12.30;;;8.80;99.90;;;;;;5037707;28;20213;-77
2021/10/30 01:16:18;;;;;;;17.75;13.00;;;8.80;99.90;;;;;;5037908;28;20315;-78
2021/10/30 01:18:46;;;;;;;20.00;12.68;;;8.70;99.90;;;;;;5037330;28;20228;-78
2021/10/30 01:21:23;;;;;;;21.27;13.57;;;8.80;99.90;;;;;;5037592;28;20296;-78
2021/10/30 01:23:51;;;;;;;17.63;13.00;;;8.80;99.90;;;;;;5037518;28;20219;-77
2021/10/30 01:26:21;;;;;;;17.50;12.90;;;8.80;99.90;;;;;;5037240;28;20216;-78
2021/10/30 01:28:48;;;;;;;20.70;13.65;;;8.80;99.90;;;;;;5037863;28;20234;-77
2021/10/30 01:31:15;;;;;;;17.00;10.63;;;8.90;99.90;;;;;;5037752;28;20240;-77
2021/10/30 01:33:42;;;;;;;16.20;12.52;;;8.90;99.90;;;;;;5040665;28;20221;-77
2021/10/30 01:36:10;;;;;;;20.60;13.30;;;9.00;99.90;;;;;;5040383;28;20220;-78
2021/10/30 01:38:38;;;;;;;17.90;12.15;;;9.10;99.90;;;;;;5037461;28;20498;-77
2021/10/30 01:41:05;;;;;;;19.10;12.70;;;9.00;99.90;;;;;;5036625;28;20776;-77
2021/10/30 01:43:33;;;;;;;19.02;11.60;;;9.00;99.90;;;;;;5037163;28;20517;-77
2021/10/30 01:46:00;;;;;;;14.20;11.60;;;8.90;99.90;;;;;;5036371;28;20703;-77
2021/10/30 01:48:29;;;;;;;18.58;12.40;;;8.80;99.90;;;;;;5036759;28;20468;-78
2021/10/30 01:50:56;;;;;;;16.77;12.90;;;8.90;99.90;;;;;;5037623;28;20621;-78
2021/10/30 01:53:23;;;;;;;15.10;11.80;;;9.00;99.90;;;;;;5037395;28;20812;-78
2021/10/30 01:55:51;;;;;;;14.48;12.18;;;9.00;99.90;;;;;;5037022;28;20212;-77
2021/10/30 01:58:18;;;;;;;16.02;12.55;;;9.00;99.90;;;;;;5037218;28;20228;-78
2021/10/30 02:00:47;;;;;;;16.50;11.90;;;8.80;99.90;;;;;;5036799;28;20607;-77
2021/10/30 02:03:14;;;;;;;15.88;11.73;;;8.80;99.90;;;;;;5037020;28;20205;-77
2021/10/30 02:05:41;;;;;;;17.20;12.43;;;8.80;99.90;;;;;;5037022;28;20708;-77
2021/10/30 02:08:08;;;;;;;17.13;12.95;;;8.70;99.90;;;;;;5036973;28;20228;-77
2021/10/30 02:10:35;;;;;;;16.92;12.27;;;8.60;99.90;;;;;;5036236;28;20701;-78
2021/10/30 02:13:03;;;;;;;19.13;11.88;;;8.40;99.90;;;;;;5036770;28;20212;-77
2021/10/30 02:15:30;;;;;;;18.70;13.07;;;8.40;99.90;;;;;;5036722;28;20212;-77
2021/10/30 02:17:57;;;;;;;18.65;13.25;;;8.40;99.90;;;;;;5036678;28;20228;-77
2021/10/30 02:20:24;;;;;;;18.50;12.98;;;8.30;99.90;;;;;;5035761;28;20223;-77
2021/10/30 02:22:53;;;;;;;18.33;14.40;;;8.30;99.90;;;;;;5035236;28;20580;-77
2021/10/30 02:25:21;;;;;;;18.35;13.85;;;8.20;99.90;;;;;;5034893;28;20685;-76
2021/10/30 02:27:48;;;;;;;19.90;13.82;;;8.10;99.90;;;;;;5036037;28;20228;-77
2021/10/30 02:30:17;;;;;;;22.38;13.20;;;8.20;99.90;;;;;;5036529;28;20215;-78
2021/10/30 02:32:44;;;;;;;18.25;13.02;;;8.20;99.90;;;;;;5042993;28;20205;-77
2021/10/30 02:35:12;;;;;;;17.70;13.32;;;8.30;99.90;;;;;;5036316;28;20237;-79
2021/10/30 02:37:39;;;;;;;17.38;12.60;;;8.30;99.90;;;;;;5036114;28;20236;-77
2021/10/30 02:40:07;;;;;;;17.77;13.85;;;8.10;99.90;;;;;;5035779;28;20219;-76
2021/10/30 02:42:35;;;;;;;18.30;13.48;;;8.30;99.90;;;;;;5034714;28;20211;-77
2021/10/30 02:45:03;;;;;;;17.83;13.35;;;8.20;99.90;;;;;;5034998;28;20214;-77
2021/10/30 02:47:32;;;;;;;18.02;13.32;;;8.10;99.90;;;;;;5035385;28;20222;-77
2021/10/30 02:49:59;;;;;;;15.85;12.00;;;8.10;99.90;;;;;;5035217;28;20573;-75
2021/10/30 02:52:26;;;;;;;19.67;13.90;;;8.00;99.90;;;;;;5034464;28;20212;-77
2021/10/30 02:54:53;;;;;;;16.38;12.38;;;8.00;99.90;;;;;;5034234;28;20205;-75
2021/10/30 02:57:21;;;;;;;19.38;14.52;;;7.80;99.90;;;;;;5034980;28;20676;-77
2021/10/30 02:59:49;;;;;;;19.63;13.10;;;8.20;99.90;;;;;;5035577;28;20690;-75
2021/10/30 03:02:15;;;;;;;18.00;12.55;;;8.20;99.90;;;;;;5035536;28;20683;-77
2021/10/30 03:04:44;;;;;;;16.88;13.55;;;8.20;99.90;;;;;;5034490;28;20219;-77
2021/10/30 03:07:11;;;;;;;16.42;12.13;;;8.20;99.90;;;;;;5034477;28;20638;-77
2021/10/30 03:09:37;;;;;;;20.60;13.43;;;8.20;99.90;;;;;;5034257;28;20232;-77
2021/10/30 03:12:05;;;;;;;15.80;12.80;;;8.10;99.90;;;;;;5034380;28;20213;-77
2021/10/30 03:14:32;;;;;;;16.30;12.13;;;8.00;99.90;;;;;;5034619;28;20460;-77
2021/10/30 03:16:58;;;;;;;17.63;13.07;;;8.00;99.90;;;;;;5034701;28;20300;-77
2021/10/30 03:19:25;;;;;;;18.95;13.02;;;8.00;99.90;;;;;;5034103;28;20319;-77
2021/10/30 03:21:53;;;;;;;17.73;13.50;;;7.90;99.90;;;;;;5034285;28;20208;-77
2021/10/30 03:24:21;;;;;;;16.40;11.82;;;7.80;99.90;;;;;;5033886;28;20692;-77
2021/10/30 03:26:47;;;;;;;19.08;13.25;;;7.80;99.90;;;;;;5033839;28;20835;-78
2021/10/30 03:29:14;;;;;;;20.35;12.88;;;7.80;99.90;;;;;;5035042;28;20262;-77
2021/10/30 03:31:41;;;;;;;19.65;12.35;;;7.80;99.90;;;;;;5035483;28;20273;-77
2021/10/30 03:34:08;;;;;;;17.75;12.75;;;7.40;99.90;;;;;;5039119;28;20284;-77
2021/10/30 03:36:35;;;;;;;17.77;13.85;;;7.80;99.90;;;;;;5036477;28;20214;-77
2021/10/30 03:39:04;;;;;;;19.45;12.70;;;7.80;99.90;;;;;;5035256;28;20243;-77
2021/10/30 03:41:33;;;;;;;16.33;12.15;;;7.70;99.90;;;;;;5035164;28;20236;-77
2021/10/30 03:43:59;;;;;;;21.20;12.80;;;7.80;99.90;;;;;;5033761;28;20235;-77
2021/10/30 03:46:26;;;;;;;18.02;13.68;;;7.80;99.90;;;;;;5033294;28;20215;-77
2021/10/30 03:48:53;;;;;;;18.45;13.20;;;7.50;99.90;;;;;;5033489;28;20739;-77
2021/10/30 03:51:21;;;;;;;18.02;13.35;;;7.90;99.90;;;;;;5033303;28;20232;-77
2021/10/30 03:53:47;;;;;;;19.27;12.50;;;7.80;99.90;;;;;;5033551;28;20696;-77
2021/10/30 03:56:16;;;;;;;17.33;12.50;;;7.80;99.90;;;;;;5033555;28;20206;-77
2021/10/30 03:58:42;;;;;;;17.38;13.30;;;7.70;99.90;;;;;;5033082;28;20716;-77
2021/10/30 04:01:10;;;;;;;16.55;11.90;;;7.60;99.90;;;;;;5033460;28;20223;-77
2021/10/30 04:03:36;;;;;;;16.02;11.90;;;7.60;99.90;;;;;;5033137;28;20677;-77
2021/10/30 04:06:03;;;;;;;16.50;13.63;;;7.80;99.90;;;;;;5034022;28;20196;-77
2021/10/30 04:08:30;;;;;;;18.20;13.85;;;7.70;99.90;;;;;;5033318;28;20228;-77
2021/10/30 04:10:57;;;;;;;17.73;11.60;;;7.30;99.90;;;;;;5033297;28;20207;-77
2021/10/30 04:13:25;;;;;;;20.42;12.93;;;7.40;99.90;;;;;;5033092;28;20196;-77
2021/10/30 04:15:52;;;;;;;16.98;12.10;;;7.40;99.90;;;;;;5033335;28;20212;-78
2021/10/30 04:18:19;;;;;;;18.42;12.02;;;7.40;99.90;;;;;;5033081;28;20715;-76
2021/10/30 04:20:45;;;;;;;15.15;11.07;;;7.60;99.90;;;;;;5033881;28;20315;-76
2021/10/30 04:23:12;;;;;;;16.50;13.00;;;7.60;99.90;;;;;;5033667;28;20282;-76
2021/10/30 04:25:40;;;;;;;22.35;12.13;;;7.40;99.90;;;;;;5033810;28;20210;-77
2021/10/30 04:28:06;;;;;;;19.00;12.82;;;7.60;99.90;;;;;;5033149;28;20234;-76
2021/10/30 04:30:35;;;;;;;16.08;11.73;;;7.20;99.90;;;;;;5032941;28;20200;-77
2021/10/30 04:33:02;;;;;;;18.40;13.25;;;7.50;99.90;;;;;;5033132;28;20590;-77
2021/10/30 04:35:29;;;;;;;18.55;14.27;;;7.60;99.90;;;;;;5033875;28;20223;-77
2021/10/30 04:37:56;;;;;;;17.30;12.50;;;7.60;99.90;;;;;;5033221;28;20236;-77
2021/10/30 04:40:23;;;;;;;14.98;11.95;;;7.40;99.90;;;;;;5057277;22;20559;-77
2021/10/30 04:42:49;;;;;;;20.02;12.52;;;7.50;99.90;;;;;;5039406;28;20202;-77
2021/10/30 04:45:16;;;;;;;19.02;12.88;;;7.40;99.90;;;;;;5046280;28;20230;-78
2021/10/30 04:47:46;;;;;;;19.88;13.70;;;7.40;99.90;;;;;;5039119;28;20215;-77
2021/10/30 04:50:13;;;;;;;19.80;13.25;;;7.40;99.90;;;;;;5047473;28;20238;-78
2021/10/30 04:52:40;;;;;;;19.45;12.60;;;7.60;99.90;;;;;;5040030;28;20319;-78
2021/10/30 04:55:08;;;;;;;15.07;13.18;;;7.40;99.90;;;;;;5038235;28;20192;-78
2021/10/30 04:57:35;;;;;;;19.20;13.48;;;7.20;99.90;;;;;;5036820;28;20235;-77
2021/10/30 05:00:02;;;;;;;18.33;12.05;;;7.60;99.90;;;;;;5036078;28;20233;-75
2021/10/30 05:02:29;;;;;;;18.38;12.65;;;7.30;99.90;;;;;;5037198;28;20250;-78
2021/10/30 05:04:57;;;;;;;19.45;12.82;;;7.50;99.90;;;;;;5038273;28;20207;-78
2021/10/30 05:07:24;;;;;;;15.15;11.82;;;7.30;99.90;;;;;;5038317;28;20298;-79
2021/10/30 05:09:51;;;;;;;16.58;12.98;;;7.40;99.90;;;;;;5043079;28;20219;-79
2021/10/30 05:12:18;;;;;;;18.73;13.75;;;7.20;99.90;;;;;;5045913;28;20290;-78
2021/10/30 05:14:45;;;;;;;19.08;12.93;;;7.20;99.90;;;;;;5038357;28;20680;-79
2021/10/30 05:17:11;;;;;;;15.10;12.25;;;7.40;99.90;;;;;;5038435;28;20303;-78
2021/10/30 05:19:38;;;;;;;17.40;12.88;;;7.40;99.90;;;;;;5043661;28;20296;-78
2021/10/30 05:22:06;;;;;;;17.13;12.52;;;7.40;99.90;;;;;;5040260;28;20242;-78
2021/10/30 05:24:33;;;;;;;16.45;12.98;;;7.30;99.90;;;;;;5042552;28;20208;-78
2021/10/30 05:27:00;;;;;;;18.88;13.95;;;7.30;99.90;;;;;;5051119;28;20281;-78
2021/10/30 05:29:27;;;;;;;17.33;12.55;;;7.30;99.90;;;;;;5043019;28;20204;-78
2021/10/30 05:31:54;;;;;;;17.42;13.45;;;7.40;99.90;;;;;;5038552;28;20255;-78
2021/10/30 05:34:21;;;;;;;18.45;12.23;;;7.40;99.90;;;;;;5036656;28;20203;-77
2021/10/30 05:36:47;;;;;;;19.10;12.40;;;7.20;99.90;;;;;;5036717;28;20212;-78
2021/10/30 05:39:16;;;;;;;21.40;13.27;;;7.40;99.90;;;;;;5038354;28;20209;-78
2021/10/30 05:41:44;;;;;;;16.73;13.05;;;7.50;99.90;;;;;;5036408;28;20227;-78
2021/10/30 05:44:11;;;;;;;18.10;13.65;;;7.40;99.90;;;;;;5036595;28;20680;-78
2021/10/30 05:46:40;;;;;;;20.33;12.93;;;7.20;99.90;;;;;;5036455;28;20204;-78
2021/10/30 05:49:07;;;;;;;17.13;12.20;;;7.30;99.90;;;;;;5037517;28;20543;-79
2021/10/30 05:51:35;;;;;;;19.08;12.98;;;7.30;99.90;;;;;;5037734;28;20238;-76
2021/10/30 05:54:02;;;;;;;17.48;12.32;;;7.20;99.90;;;;;;5035595;28;20207;-76
2021/10/30 05:56:31;;;;;;;20.65;12.68;;;7.10;99.90;;;;;;5034920;28;20208;-76
2021/10/30 05:58:57;;;;;;;17.55;12.80;;;7.30;99.90;;;;;;5034971;28;20207;-76
2021/10/30 06:01:24;;;;;;;18.80;13.45;;;7.30;99.90;;;;;;5034712;28;20232;-76
2021/10/30 06:03:51;;;;;;;20.08;14.13;;;7.20;99.90;;;;;;5034453;28;20208;-77
2021/10/30 06:06:18;;;;;;;20.10;12.25;;;7.10;99.90;;;;;;5036661;28;20215;-79
2021/10/30 06:08:45;;;;;;;19.40;13.18;;;7.10;99.90;;;;;;5039648;28;20306;-78
2021/10/30 06:11:12;;;;;;;18.58;13.18;;;7.10;99.90;;;;;;5037105;28;20220;-78
2021/10/30 06:13:40;;;;;;;22.70;14.65;;;6.90;99.90;;;;;;5038475;28;20559;-79
2021/10/30 06:16:07;;;;;;;20.02;13.23;;;7.10;99.90;;;;;;5038424;28;20198;-79
2021/10/30 06:18:34;;;;;;;21.65;14.02;;;6.90;99.90;;;;;;5038950;28;20546;-79
2021/10/30 06:21:01;;;;;;;19.95;13.25;;;6.80;99.90;;;;;;5038693;28;20754;-78
2021/10/30 06:23:28;;;;;;;20.27;14.60;;;6.90;99.90;;;;;;5040194;28;20228;-83
2021/10/30 06:25:55;;;;;;;19.90;13.20;;;6.80;99.90;;;;;;5039262;28;20302;-79
2021/10/30 06:28:22;;;;;;;17.73;13.07;;;6.80;99.90;;;;;;5039031;28;20208;-78
2021/10/30 06:30:50;;;;;;;23.63;14.63;;;7.20;99.90;;;;;;5040110;28;20277;-78
2021/10/30 06:33:17;;;;;;;18.65;12.40;;;7.10;99.90;;;;;;5040119;28;20557;-76
2021/10/30 06:35:44;;;;;;;20.45;13.88;;;7.10;99.90;;;;;;5038742;28;20297;-78
2021/10/30 06:38:12;;;;;;;16.75;13.32;;;7.20;99.90;;;;;;5036918;28;20276;-78
2021/10/30 06:40:39;;;;;;;16.65;12.95;;;7.10;99.90;;;;;;5036678;28;20322;-79
2021/10/30 06:43:06;;;;;;;15.73;11.98;;;7.40;99.90;;;;;;5038306;28;20207;-79
2021/10/30 06:45:33;;;;;;;19.20;12.82;;;7.30;99.90;;;;;;5047572;28;20212;-79
2021/10/30 06:48:01;;;;;;;17.90;12.02;;;7.40;99.90;;;;;;5044900;28;20208;-79
2021/10/30 06:50:30;;;;;;;18.65;12.20;;;7.30;99.90;;;;;;5044003;28;20227;-84
2021/10/30 06:52:57;;;;;;;19.90;13.90;;;7.50;99.90;;;;;;5038214;28;20298;-80
2021/10/30 06:55:24;;;;;;;20.08;12.85;;;7.50;99.90;;;;;;5037085;28;20205;-79
2021/10/30 06:57:52;;;;;;;22.80;13.20;;;7.30;99.90;;;;;;5043701;28;20264;-80
2021/10/30 07:00:19;;;;;;;16.73;12.25;;;7.40;99.90;;;;;;5044198;28;20566;-79
2021/10/30 07:02:47;;;;;;;16.80;11.80;;;7.30;99.90;;;;;;5037744;28;20310;-79
2021/10/30 07:05:16;;;;;;;20.05;11.38;;;7.40;99.90;;;;;;5037687;28;20214;-79
2021/10/30 07:07:42;;;;;;;16.83;12.13;;;7.50;99.90;;;;;;5043815;28;20275;-79
2021/10/30 07:10:10;;;;;;;17.55;12.07;;;7.60;99.90;;;;;;5047060;28;20251;-78
2021/10/30 07:12:39;;;;;;;15.23;11.82;;;7.70;99.90;;;;;;5050422;28;20219;-79
2021/10/30 07:15:07;;;;;;;17.90;12.63;;;7.80;99.90;;;;;;5036613;28;20255;-79
2021/10/30 07:17:34;;;;;;;18.23;11.65;;;7.80;99.90;;;;;;5036440;28;20615;-78
2021/10/30 07:20:01;;;;;;;14.82;11.27;;;7.70;99.90;;;;;;5044404;28;20289;-79
2021/10/30 07:22:29;;;;;;;14.63;12.32;;;7.80;99.90;;;;;;5037756;28;20261;-78
2021/10/30 07:24:56;;;;;;;17.20;12.95;;;8.00;99.90;;;;;;5036003;28;20266;-82
2021/10/30 07:27:23;;;;;;;17.05;12.13;;;8.00;99.90;;;;;;5035431;28;20211;-77
2021/10/30 07:29:51;;;;;;;15.13;12.25;;;8.10;99.90;;;;;;5032850;28;20204;-78
2021/10/30 07:32:18;;;;;;;16.23;11.13;;;8.10;99.90;;;;;;5035922;28;20209;-78
2021/10/30 07:34:45;;;;;;;15.98;11.23;;;8.30;99.90;;;;;;5035218;28;20650;-78
2021/10/30 07:37:12;;;;;;;16.10;12.00;;;8.40;99.90;;;;;;5036159;28;20222;-78
2021/10/30 07:39:41;;;;;;;15.75;11.90;;;8.50;99.90;;;;;;5040578;28;20208;-78
2021/10/30 07:42:08;;;;;;;17.30;11.15;;;8.20;99.90;;;;;;5037108;28;20224;-78
2021/10/30 07:44:36;;;;;;;17.27;11.32;;;8.50;99.90;;;;;;5036213;28;20213;-78
2021/10/30 07:47:04;;;;;;;15.73;11.38;;;8.50;99.90;;;;;;5035678;28;20744;-84
2021/10/30 07:49:32;;;;;;;14.05;10.68;;;8.60;99.90;;;;;;5036608;28;20298;-81
2021/10/30 07:51:59;;;;;;;14.27;10.90;;;8.60;99.90;;;;;;5034841;28;20669;-78
2021/10/30 07:54:26;;;;;;;18.80;11.90;;;8.70;99.90;;;;;;5034986;28;20244;-77
2021/10/30 07:56:54;;;;;;;14.75;11.52;;;8.70;99.90;;;;;;5034415;28;20296;-77
2021/10/30 07:59:21;;;;;;;16.23;12.18;;;8.60;99.90;;;;;;5034401;28;20205;-78
2021/10/30 08:01:50;;;;;;;16.45;11.05;;;8.80;99.90;;;;;;5035802;28;20322;-77
2021/10/30 08:04:17;;;;;;;16.75;10.95;;;8.90;99.90;;;;;;5034344;28;20244;-76
2021/10/30 08:06:44;;;;;;;15.90;11.30;;;8.90;99.90;;;;;;5034019;28;20210;-77
2021/10/30 08:09:11;;;;;;;15.37;11.40;;;9.00;99.90;;;;;;5034952;28;20218;-78
2021/10/30 08:11:38;;;;;;;14.13;10.95;;;9.00;99.90;;;;;;5033608;28;20495;-77
2021/10/30 08:14:06;;;;;;;17.42;11.35;;;9.10;99.90;;;;;;5034532;28;20240;-78
2021/10/30 08:16:33;;;;;;;15.13;11.52;;;9.10;99.90;;;;;;5035404;28;20205;-78
2021/10/30 08:19:00;;;;;;;16.42;11.55;;;9.20;99.90;;;;;;5040726;28;20624;-77
2021/10/30 08:21:27;;;;;;;14.40;11.30;;;9.30;99.90;;;;;;5043357;28;20316;-78
2021/10/30 08:23:54;;;;;;;16.80;12.68;;;9.50;99.90;;;;;;5045865;28;20448;-78
2021/10/30 08:26:21;;;;;;;18.03;12.07;;;9.50;99.90;;;;;;5038376;28;20213;-77
2021/10/30 08:28:49;;;;;;;15.10;11.50;;;9.60;99.90;;;;;;5037282;28;20451;-78
2021/10/30 08:31:17;;;;;;;16.23;11.33;;;9.70;99.90;;;;;;5039648;28;20472;-78
2021/10/30 08:33:44;;;;;;;15.07;11.00;;;9.70;99.90;;;;;;5037646;28;20916;-77
2021/10/30 08:36:11;;;;;;;15.37;10.60;;;9.80;99.90;;;;;;5036922;28;20444;-77
2021/10/30 08:38:38;;;;;;;16.03;11.63;;;10.00;99.90;;;;;;5037562;28;20543;-77
2021/10/30 08:41:06;;;;;;;17.77;12.50;;;10.10;99.90;;;;;;5038456;28;20533;-78
2021/10/30 08:43:34;;;;;;;19.40;11.73;;;10.10;99.90;;;;;;5043880;28;20514;-77
2021/10/30 08:46:08;;;;;;;16.20;11.07;;;10.10;99.90;;;;;;5041630;28;20462;-77
2021/10/30 08:48:38;;;;;;;16.00;12.60;;;10.10;99.90;;;;;;5035815;28;20774;-77
2021/10/30 08:51:05;;;;;;;19.33;12.40;;;10.20;99.90;;;;;;5037608;28;20503;-78
2021/10/30 08:53:32;;;;;;;18.93;12.83;;;10.30;99.90;;;;;;5043101;28;20480;-78
2021/10/30 08:56:03;;;;;;;16.90;11.70;;;10.30;99.90;;;;;;5040909;28;20539;-78
2021/10/30 08:58:30;;;;;;;18.70;12.33;;;10.60;99.90;;;;;;5038978;28;20746;-78
2021/10/30 09:00:59;;;;;;;17.30;13.10;;;10.60;99.90;;;;;;5038042;28;20511;-78
2021/10/30 09:03:27;;;;;;;14.47;11.07;;;10.60;99.90;;;;;;5041479;28;20516;-78
2021/10/30 09:05:57;;;;;;;16.40;11.83;;;10.70;99.90;;;;;;5037352;28;20527;-78
2021/10/30 09:08:26;;;;;;;17.10;13.47;;;10.80;99.90;;;;;;5037819;28;21027;-78
2021/10/30 09:10:56;;;;;;;17.47;11.87;;;10.90;99.90;;;;;;5040103;28;20477;-78
2021/10/30 09:13:27;;;;;;;18.20;10.30;;;11.00;99.90;;;;;;5043101;28;20536;-79
2021/10/30 09:15:54;;;;;;;13.50;10.53;;;11.10;99.90;;;;;;5042038;28;20515;-78
2021/10/30 09:18:27;;;;;;;16.07;12.03;;;11.20;99.90;;;;;;5040564;28;20642;-78
2021/10/30 09:20:56;;;;;;;14.23;11.03;;;11.20;99.90;;;;;;5036690;28;20476;-77
2021/10/30 09:23:28;;;;;;;15.20;11.20;;;11.20;99.90;;;;;;5036205;28;20527;-77
2021/10/30 09:25:58;;;;;;;15.23;11.40;;;11.20;99.90;;;;;;5039416;28;20469;-78
2021/10/30 09:28:25;;;;;;;15.73;10.37;;;11.20;99.90;;;;;;5047221;28;20463;-79
2021/10/30 09:31:01;;;;;;;14.23;11.27;;;11.30;99.90;;;;;;5038565;28;20511;-78
2021/10/30 09:33:30;;;;;;;21.00;11.90;;;11.60;99.90;;;;;;5038982;28;20418;-78
2021/10/30 09:35:59;;;;;;;15.67;11.83;;;11.70;99.90;;;;;;5045404;28;20933;-78
2021/10/30 09:38:32;;;;;;;16.60;12.70;;;11.60;99.90;;;;;;5041434;28;20487;-78
2021/10/30 09:41:01;;;;;;;20.80;13.40;;;11.60;99.90;;;;;;5036394;28;20997;-79
2021/10/30 09:43:28;;;;;;;17.60;12.40;;;11.60;99.90;;;;;;5037917;28;20579;-78
2021/10/30 09:45:57;;;;;;;20.53;14.43;;;11.50;99.90;;;;;;5037808;28;20476;-78
2021/10/30 09:48:27;;;;;;;18.57;13.07;;;11.80;99.90;;;;;;5042569;28;20452;-79
2021/10/30 09:50:59;;;;;;;19.97;12.67;;;11.80;99.90;;;;;;5038399;28;20499;-77
2021/10/30 09:53:35;;;;;;;23.30;13.50;;;11.60;99.90;;;;;;5048837;28;20434;-78
2021/10/30 09:56:05;;;;;;;20.53;13.90;;;11.40;99.90;;;;;;5034741;28;20429;-77
2021/10/30 09:58:35;;;;;;;17.60;12.93;;;11.40;99.90;;;;;;5038455;28;20929;-78
2021/10/30 10:01:08;;;;;;;20.70;13.60;;;11.30;99.90;;;;;;5039938;28;20578;-78
2021/10/30 10:03:36;;;;;;;16.50;13.37;;;11.30;99.90;;;;;;5038395;28;20591;-79
2021/10/30 10:06:06;;;;;;;17.27;12.17;;;11.30;99.90;;;;;;5038337;28;20480;-78
2021/10/30 10:08:38;;;;;;;16.20;13.30;;;11.30;99.90;;;;;;5037976;28;20841;-79
2021/10/30 10:11:08;;;;;;;20.43;13.60;;;11.30;99.90;;;;;;5041937;28;20458;-77
2021/10/30 10:13:37;;;;;;;19.40;12.53;;;11.50;99.90;;;;;;5037466;28;20453;-79
2021/10/30 10:16:04;;;;;;;17.53;13.20;;;11.60;99.90;;;;;;5038038;28;20461;-77
2021/10/30 10:18:31;;;;;;;18.70;15.10;;;11.70;99.90;;;;;;5035369;28;20547;-78
2021/10/30 10:20:59;;;;;;;30.97;15.13;;;11.50;99.90;;;;;;5036284;28;20478;-79
2021/10/30 10:23:27;;;;;;;16.67;12.83;;;11.50;99.90;;;;;;5037961;28;20570;-77
2021/10/30 10:25:56;;;;;;;15.80;11.93;;;11.80;99.90;;;;;;5034703;28;20457;-78
2021/10/30 10:28:25;;;;;;;21.90;13.70;;;11.90;99.90;;;;;;5036799;28;20555;-77
2021/10/30 10:30:54;;;;;;;19.60;13.50;;;11.90;99.90;;;;;;5033891;28;20491;-77
2021/10/30 10:33:21;;;;;;;17.83;13.80;;;11.70;99.90;;;;;;5034205;28;20449;-79
2021/10/30 10:36:25;;;;;;;21.13;13.87;;;11.60;99.90;;;;;;5035496;28;20451;-77
2021/10/30 10:39:11;;;;;;;20.00;14.33;;;11.50;99.90;;;;;;5034994;28;20828;-78
2021/10/30 10:41:58;;;;;;;16.40;12.80;;;11.70;99.90;;;;;;5049366;22;20573;-77
2021/10/30 10:44:55;;;;;;;18.63;14.00;;;11.70;99.90;;;;;;5035136;28;20526;-77
2021/10/30 10:47:53;;;;;;;21.90;15.00;;;11.70;99.90;;;;;;5012218;28;20449;-77
2021/10/30 10:50:26;;;;;;;23.53;14.43;;;11.60;99.90;;;;;;5034071;28;20437;-76
2021/10/30 10:53:29;;;;;;;16.90;13.30;;;11.60;99.90;;;;;;5034069;28;20560;-76
2021/10/30 10:56:16;;;;;;;21.10;14.23;;;11.70;99.90;;;;;;5033680;28;20457;-76
2021/10/30 10:59:14;;;;;;;18.73;13.93;;;11.60;99.90;;;;;;5033872;28;20412;-76
2021/10/30 11:02:15;;;;;;;19.83;14.50;;;11.50;99.90;;;;;;5034006;28;20481;-77
2021/10/30 11:04:43;;;;;;;16.60;12.73;;;11.70;99.90;;;;;;5034075;28;20444;-77
2021/10/30 11:07:18;;;;;;;20.07;13.53;;;11.80;99.90;;;;;;5034003;28;20458;-77
2021/10/30 11:10:01;;;;;;;15.87;12.67;;;11.80;99.90;;;;;;5034904;28;20452;-78
2021/10/30 11:12:29;;;;;;;19.07;13.53;;;11.70;99.90;;;;;;5035274;28;20940;-77
2021/10/30 11:15:08;;;;;;;18.80;13.97;;;11.80;99.90;;;;;;5035121;28;20451;-77
2021/10/30 11:17:43;;;;;;;17.80;13.30;;;11.90;99.90;;;;;;5033833;28;20968;-78
2021/10/30 11:20:12;;;;;;;19.83;13.60;;;11.90;99.90;;;;;;5033557;28;20441;-77
2021/10/30 11:22:54;;;;;;;18.37;13.37;;;11.70;99.90;;;;;;5033736;28;20491;-77
2021/10/30 11:25:21;;;;;;;18.93;14.10;;;11.70;99.90;;;;;;5033655;28;20440;-77
2021/10/30 11:27:54;;;;;;;18.33;14.53;;;11.60;99.90;;;;;;5033659;28;20468;-77
2021/10/30 11:30:37;;;;;;;17.23;11.63;;;11.60;99.90;;;;;;5032990;28;20461;-77
2021/10/30 11:33:25;;;;;;;23.33;14.53;;;11.90;99.90;;;;;;5033433;28;20433;-77
2021/10/30 11:36:00;;;;;;;19.00;13.50;;;11.90;99.90;;;;;;5033173;28;20516;-76
2021/10/30 11:38:29;;;;;;;20.77;14.60;;;11.90;99.90;;;;;;5033539;28;20538;-77
2021/10/30 11:40:57;;;;;;;21.00;13.70;;;11.90;99.90;;;;;;5032875;28;20526;-77
2021/10/30 11:43:27;;;;;;;19.90;13.77;;;12.00;99.90;;;;;;5033126;28;20959;-77
2021/10/30 11:45:58;;;;;;;20.33;13.90;;;12.10;99.90;;;;;;5033116;28;20440;-77
2021/10/30 11:48:34;;;;;;;20.63;14.43;;;12.00;99.90;;;;;;5033940;28;20441;-78
2021/10/30 11:51:01;;;;;;;17.73;15.10;;;11.90;99.90;;;;;;5033609;28;20551;-76
2021/10/30 11:53:30;;;;;;;18.27;13.33;;;11.90;99.90;;;;;;5032366;28;20488;-76
2021/10/30 11:56:01;;;;;;;17.77;14.17;;;12.20;99.90;;;;;;5032653;28;20541;-78
2021/10/30 11:58:44;;;;;;;18.53;13.30;;;12.40;99.90;;;;;;5034140;28;20490;-77
2021/10/30 12:01:20;;;;;;;21.93;14.80;;;12.40;99.90;;;;;;5033435;28;20451;-77
2021/10/30 12:03:47;;;;;;;31.20;16.43;;;12.20;99.90;;;;;;5036219;28;20918;-77
2021/10/30 12:06:14;;;;;;;23.70;16.37;;;12.10;99.90;;;;;;5034684;28;20858;-77
2021/10/30 12:08:42;;;;;;;28.37;17.53;;;11.90;99.90;;;;;;5034631;28;20877;-77
2021/10/30 12:11:10;;;;;;;27.90;17.33;;;11.90;99.90;;;;;;5033162;28;20455;-76
2021/10/30 12:13:42;;;;;;;23.17;17.37;;;11.80;99.90;;;;;;5033360;28;20420;-76
2021/10/30 12:16:09;;;;;;;23.80;16.80;;;11.80;99.90;;;;;;5033050;28;20462;-76
2021/10/30 12:18:36;;;;;;;24.07;18.23;;;11.80;99.90;;;;;;5034486;28;20544;-78
2021/10/30 12:21:03;;;;;;;20.13;15.37;;;11.70;99.90;;;;;;5032520;28;21067;-77
2021/10/30 12:23:30;;;;;;;24.77;17.10;;;12.00;99.90;;;;;;5034481;28;20533;-78
2021/10/30 12:26:04;;;;;;;26.57;17.20;;;12.10;99.90;;;;;;5034556;28;20465;-78
2021/10/30 12:28:34;;;;;;;21.17;17.60;;;12.00;99.90;;;;;;5033406;28;20424;-77
2021/10/30 12:31:04;;;;;;;25.53;18.30;;;11.80;99.90;;;;;;5032892;28;20822;-77
2021/10/30 12:33:34;;;;;;;23.80;18.57;;;11.80;99.90;;;;;;5032789;28;20528;-77
2021/10/30 12:36:01;;;;;;;21.50;16.93;;;11.70;99.90;;;;;;5036411;28;20906;-77
2021/10/30 12:38:29;;;;;;;23.80;17.27;;;11.80;99.90;;;;;;5035718;28;20457;-77
2021/10/30 12:40:57;;;;;;;23.17;15.83;;;12.00;99.90;;;;;;5035296;28;20473;-77
2021/10/30 12:43:27;;;;;;;24.90;16.43;;;12.20;99.90;;;;;;5032862;28;20473;-78